Time;durP1;ratioP1;P1;durP2;ratioP2;P2;SDS_P1;SDS_P2;PMS_P1;PMS_P2;Temp;Humidity;BMP_temperature;BMP_pressure;BME280_temperature;BME280_humidity;BME280_pressure;Samples;Min_cycle;Max_cycle;Signal;HPM_P1;HPM_P2
2021/12/24 00:00:44;;;;;;;39.10;22.27;;;;;;;0.25;86.73;99035.59;1740330;82;21088;-73
2021/12/24 00:03:12;;;;;;;39.67;21.90;;;;;;;0.33;86.72;99025.13;1739952;82;21057;-73
2021/12/24 00:05:40;;;;;;;32.23;19.57;;;;;;;0.40;86.78;99018.55;1740369;82;21025;-73
2021/12/24 00:08:08;;;;;;;40.00;22.60;;;;;;;0.48;86.86;99027.89;1756463;81;21564;-74
2021/12/24 00:10:38;;;;;;;42.13;24.20;;;;;;;0.54;86.81;99022.61;1724952;83;22017;-74
2021/12/24 00:13:11;;;;;;;38.80;21.93;;;;;;;0.60;86.86;99028.94;1756619;81;21060;-74
2021/12/24 00:16:03;;;;;;;38.90;21.80;;;;;;;0.65;86.93;99027.13;1724978;82;21039;-75
2021/12/24 00:18:42;;;;;;;34.50;20.77;;;;;;;0.69;86.97;99026.18;1754768;81;20976;-74
2021/12/24 00:37:29;;;;;;;34.87;21.17;;;;;;;0.88;87.08;98997.86;1756809;81;21119;-74
2021/12/24 00:40:16;;;;;;;32.20;20.33;;;;;;;0.88;87.13;98981.53;1724756;83;21417;-75
2021/12/24 00:42:44;;;;;;;33.57;19.70;;;;;;;0.91;87.22;98989.66;1756462;81;20912;-74
2021/12/24 00:45:12;;;;;;;34.10;20.32;;;;;;;0.92;87.21;98988.34;1725073;82;21032;-75
2021/12/24 00:47:39;;;;;;;33.80;20.03;;;;;;;0.95;87.40;98997.31;1756891;81;21055;-74
2021/12/24 00:50:11;;;;;;;32.33;20.03;;;;;;;0.98;87.41;98988.66;1724378;82;21130;-74
2021/12/24 00:52:58;;;;;;;33.70;20.43;;;;;;;1.01;87.53;98984.27;1742920;82;21525;-74
2021/12/24 00:55:26;;;;;;;32.50;19.23;;;;;;;1.05;87.47;98986.34;1742399;82;20977;-75
2021/12/24 00:58:02;;;;;;;31.30;20.00;;;;;;;1.08;87.67;98981.98;1715981;83;21037;-75
2021/12/24 01:00:33;;;;;;;34.47;20.17;;;;;;;1.13;87.69;98984.89;1743222;82;21308;-75
2021/12/24 01:03:03;;;;;;;33.43;18.83;;;;;;;1.14;87.67;98981.01;1739076;82;21759;-74
2021/12/24 01:05:33;;;;;;;32.27;19.90;;;;;;;1.17;87.86;98969.33;1738878;82;21504;-74
2021/12/24 01:08:00;;;;;;;43.17;22.53;;;;;;;1.20;87.83;98961.52;1739037;82;21574;-74
2021/12/24 01:10:31;;;;;;;33.70;19.30;;;;;;;1.22;87.84;98955.00;1738762;82;21064;-74
2021/12/24 01:12:59;;;;;;;32.37;19.23;;;;;;;1.25;87.94;98962.27;1739094;82;21459;-74
2021/12/24 01:15:28;;;;;;;30.03;18.70;;;;;;;1.27;87.90;98954.02;1738770;82;21195;-74
2021/12/24 01:18:05;;;;;;;29.60;18.47;;;;;;;1.30;87.91;98954.39;1738905;82;21036;-74
2021/12/24 01:20:38;;;;;;;29.27;18.73;;;;;;;1.30;88.02;98947.94;1737445;82;21503;-74
2021/12/24 01:37:52;;;;;;;29.67;18.13;;;;;;;1.34;88.05;98941.39;1738600;82;21020;-73
2021/12/24 01:38:36;;;;;;;23.67;16.33;;;;;;;1.38;88.28;98931.84;1739177;82;21048;-73
2021/12/24 01:43:29;;;;;;;26.00;16.57;;;;;;;1.43;88.39;98928.71;1739122;81;20878;-73
2021/12/24 01:46:00;;;;;;;24.73;15.53;;;;;;;1.44;88.51;98926.97;1738754;82;21064;-73
2021/12/24 01:48:27;;;;;;;28.40;16.42;;;;;;;1.46;88.59;98929.08;1739200;82;21016;-74
2021/12/24 01:50:54;;;;;;;25.17;15.50;;;;;;;1.47;88.67;98920.44;1740424;82;21013;-74
2021/12/24 01:53:24;;;;;;;24.83;16.00;;;;;;;1.50;88.68;98921.69;1745237;82;21508;-73
2021/12/24 01:55:53;;;;;;;22.87;15.37;;;;;;;1.51;88.65;98918.20;1745828;82;21004;-74
2021/12/24 01:58:27;;;;;;;23.50;15.50;;;;;;;1.52;88.84;98916.89;1745913;82;21095;-73
2021/12/24 02:00:56;;;;;;;27.53;16.03;;;;;;;1.54;88.90;98911.23;1745922;82;21517;-74
2021/12/24 02:03:23;;;;;;;24.77;15.57;;;;;;;1.57;88.90;98906.43;1746341;82;21087;-73
2021/12/24 02:05:51;;;;;;;23.33;15.33;;;;;;;1.59;88.88;98914.16;1745857;82;21957;-73
2021/12/24 02:08:18;;;;;;;22.47;14.83;;;;;;;1.61;88.99;98904.20;1746033;82;21012;-73
2021/12/24 02:10:47;;;;;;;23.10;14.90;;;;;;;1.63;88.99;98895.09;1745627;82;20993;-73
2021/12/24 02:13:14;;;;;;;23.60;14.90;;;;;;;1.66;89.10;98891.98;1746139;82;21068;-73
2021/12/24 02:16:08;;;;;;;20.80;14.47;;;;;;;1.68;89.07;98887.64;1745995;82;21470;-74
2021/12/24 02:28:15;;;;;;;23.90;14.33;;;;;;;1.71;89.20;98889.30;1742709;82;21065;-74
2021/12/24 02:29:25;;;;;;;24.43;14.57;;;;;;;1.81;89.36;98874.43;1722301;83;21039;-74
2021/12/24 02:31:52;;;;;;;22.40;14.40;;;;;;;1.82;89.41;98876.95;1721985;83;21951;-74
2021/12/24 02:34:19;;;;;;;19.90;13.93;;;;;;;1.84;89.42;98867.89;1669407;84;21048;-74
2021/12/24 02:36:46;;;;;;;20.43;13.17;;;;;;;1.85;89.48;98868.28;1722003;83;21019;-74
2021/12/24 02:39:13;;;;;;;20.23;13.43;;;;;;;1.89;89.56;98868.62;1722368;83;21051;-74
2021/12/24 02:41:40;;;;;;;19.07;13.33;;;;;;;1.90;89.51;98860.81;1694625;84;21063;-75
2021/12/24 02:44:07;;;;;;;19.17;12.63;;;;;;;1.92;89.65;98866.80;1722366;83;21083;-75
2021/12/24 02:47:08;;;;;;;21.27;12.13;;;;;;;1.97;89.69;98870.11;1721895;83;20992;-74
2021/12/24 02:49:13;;;;;;;18.90;11.97;;;;;;;2.00;89.72;98864.02;1691018;84;21063;-75
2021/12/24 02:54:21;;;;;;;19.77;12.23;;;;;;;2.07;89.74;98871.14;1734613;82;21015;-74
2021/12/24 02:56:54;;;;;;;16.03;11.87;;;;;;;2.08;89.82;98855.61;1704379;84;21139;-74
2021/12/24 02:59:19;;;;;;;16.00;10.37;;;;;;;2.12;89.77;98868.00;1735686;82;21035;-75
2021/12/24 03:01:48;;;;;;;16.97;11.10;;;;;;;2.14;89.81;98861.90;1736740;82;21004;-74
2021/12/24 03:04:16;;;;;;;14.50;9.50;;;;;;;2.17;89.86;98860.97;1736679;82;21079;-74
2021/12/24 03:06:47;;;;;;;16.83;11.13;;;;;;;2.20;90.05;98860.43;1736878;82;21290;-75
2021/12/24 03:09:17;;;;;;;14.07;9.83;;;;;;;2.22;89.97;98860.41;1736498;82;21143;-74
2021/12/24 03:11:47;;;;;;;14.07;9.25;;;;;;;2.26;90.07;98865.03;1736965;82;28910;-74
2021/12/24 03:14:18;;;;;;;13.83;9.85;;;;;;;2.28;89.98;98864.55;1736828;82;21062;-74
2021/12/24 03:16:49;;;;;;;13.58;9.15;;;;;;;2.28;89.98;98857.64;1736774;82;21060;-75
2021/12/24 03:19:13;;;;;;;13.47;9.40;;;;;;;2.31;89.95;98860.59;1736644;82;21056;-74
2021/12/24 03:21:55;;;;;;;14.10;9.37;;;;;;;2.33;90.11;98857.48;1706040;84;22050;-74
2021/12/24 03:26:46;;;;;;;12.23;8.40;;;;;;;2.34;90.10;98849.70;1736851;82;21082;-74
2021/12/24 03:29:17;;;;;;;12.13;8.63;;;;;;;2.39;90.31;98850.87;1736567;82;21473;-74
2021/12/24 03:31:46;;;;;;;13.30;8.88;;;;;;;2.42;90.36;98851.63;1736975;82;21280;-74
2021/12/24 03:34:17;;;;;;;12.07;8.33;;;;;;;2.44;90.21;98857.61;1736580;82;21959;-74
2021/12/24 03:36:45;;;;;;;13.43;8.77;;;;;;;2.43;90.16;98857.19;1736685;82;21543;-74
2021/12/24 03:39:14;;;;;;;12.43;9.37;;;;;;;2.42;90.08;98856.80;1736515;82;21508;-74
2021/12/24 03:41:42;;;;;;;14.40;9.40;;;;;;;2.42;90.06;98849.48;1736792;82;21079;-74
2021/12/24 03:44:12;;;;;;;11.73;8.40;;;;;;;2.42;90.09;98849.04;1736578;82;21039;-74
2021/12/24 03:47:07;;;;;;;12.87;8.73;;;;;;;2.42;90.17;98842.58;1736520;82;22045;-75
2021/12/24 03:49:16;;;;;;;12.40;8.63;;;;;;;2.42;90.25;98838.70;1728671;82;21069;-75
2021/12/24 03:51:54;;;;;;;13.30;9.03;;;;;;;2.43;90.31;98833.91;1733834;82;21575;-75
2021/12/24 03:56:58;;;;;;;11.73;8.80;;;;;;;2.45;90.31;98836.47;1733254;82;21047;-74
2021/12/24 03:59:38;;;;;;;11.45;7.22;;;;;;;2.46;90.38;98837.70;1701605;82;21179;-74
2021/12/24 04:02:24;;;;;;;11.37;8.03;;;;;;;2.47;90.47;98838.57;1733205;82;21477;-75
2021/12/24 04:05:10;;;;;;;12.40;8.10;;;;;;;2.48;90.50;98833.79;1733178;82;21059;-74
2021/12/24 04:07:57;;;;;;;12.27;7.57;;;;;;;2.52;90.66;98834.09;1728782;82;21555;-74
2021/12/24 04:10:40;;;;;;;11.43;7.87;;;;;;;2.53;90.67;98829.78;1732368;82;21516;-72
2021/12/24 04:13:18;;;;;;;12.77;8.23;;;;;;;2.54;90.65;98831.47;1731752;82;21110;-73
2021/12/24 04:15:45;;;;;;;11.13;7.37;;;;;;;2.54;90.64;98820.67;1733216;82;21023;-73
2021/12/24 04:18:22;;;;;;;11.77;7.67;;;;;;;2.56;90.79;98831.83;1733260;82;21051;-73
2021/12/24 04:26:13;;;;;;;10.27;6.90;;;;;;;2.61;90.87;98818.77;1751352;82;22250;-74
2021/12/24 04:28:41;;;;;;;10.43;7.13;;;;;;;2.65;90.91;98823.78;1751584;81;21004;-73
2021/12/24 04:31:08;;;;;;;8.23;6.47;;;;;;;2.68;90.79;98824.14;1751406;82;21433;-73
2021/12/24 04:33:38;;;;;;;9.50;6.83;;;;;;;2.70;90.83;98826.23;1751639;82;21012;-74
2021/12/24 05:03:47;;;;;;;13.10;7.67;;;;;;;2.94;91.24;98815.59;1751741;82;21512;-73
2021/12/24 05:08:56;;;;;;;7.37;5.27;;;;;;;3.00;91.16;98821.02;1751611;82;21106;-74
2021/12/24 05:11:23;;;;;;;7.73;5.73;;;;;;;3.03;91.24;98819.63;1751386;82;21491;-73
2021/12/24 05:13:54;;;;;;;8.83;5.47;;;;;;;3.06;91.15;98818.23;1751611;82;21603;-73
2021/12/24 05:16:37;;;;;;;8.43;5.10;;;;;;;3.05;91.17;98825.16;1749602;82;21118;-73
2021/12/24 05:22:00;;;;;;;6.33;4.43;;;;;;;3.07;91.10;98827.23;1658284;86;21066;-73
2021/12/24 05:24:30;;;;;;;6.03;4.60;;;;;;;3.08;91.22;98823.77;1691792;84;21031;-73
2021/12/24 05:27:03;;;;;;;6.67;4.53;;;;;;;3.10;91.28;98813.34;1740137;80;21021;-73
2021/12/24 05:29:32;;;;;;;7.07;4.87;;;;;;;3.11;91.19;98815.05;1789404;80;21039;-73
2021/12/24 05:32:00;;;;;;;6.27;4.57;;;;;;;3.11;91.32;98815.89;1789171;80;21124;-73
2021/12/24 05:34:28;;;;;;;7.40;5.43;;;;;;;3.10;91.29;98813.34;1789427;80;20961;-73
2021/12/24 05:36:56;;;;;;;7.60;5.60;;;;;;;3.11;91.26;98808.12;1789262;80;21001;-73
2021/12/24 05:39:23;;;;;;;6.37;4.53;;;;;;;3.10;91.22;98802.98;1789316;80;21024;-73
2021/12/24 05:41:51;;;;;;;7.43;4.70;;;;;;;3.08;91.29;98801.76;1789251;80;21011;-73
2021/12/24 05:44:18;;;;;;;6.97;4.60;;;;;;;3.09;91.36;98799.56;1789405;80;21109;-73
2021/12/24 05:46:47;;;;;;;6.60;4.80;;;;;;;3.10;91.31;98806.45;1788378;80;21512;-73
2021/12/24 05:49:16;;;;;;;7.07;5.57;;;;;;;3.09;91.38;98808.62;1785803;80;21078;-73
2021/12/24 05:51:45;;;;;;;7.63;5.37;;;;;;;3.10;91.35;98793.50;1786586;80;20984;-72
2021/12/24 05:54:13;;;;;;;6.90;4.63;;;;;;;3.09;91.47;98787.91;1784743;80;21031;-73
2021/12/24 05:56:42;;;;;;;7.17;5.10;;;;;;;3.15;91.68;98779.55;1789208;80;21078;-73
2021/12/24 05:59:14;;;;;;;5.93;4.43;;;;;;;3.16;91.53;98775.63;1788343;80;21496;-73
2021/12/24 06:01:41;;;;;;;6.10;4.80;;;;;;;3.17;91.63;98773.88;1789165;80;21016;-73
2021/12/24 06:04:08;;;;;;;5.83;4.57;;;;;;;3.19;91.62;98771.64;1789365;80;21484;-73
2021/12/24 06:06:35;;;;;;;5.00;4.00;;;;;;;3.20;91.55;98780.25;1789120;80;21030;-73
2021/12/24 06:09:03;;;;;;;6.60;4.20;;;;;;;3.20;91.60;98770.73;1789325;80;21095;-73
2021/12/24 06:11:29;;;;;;;5.60;4.03;;;;;;;3.20;91.66;98766.85;1789108;80;21550;-73
2021/12/24 06:13:57;;;;;;;5.33;4.13;;;;;;;3.23;91.63;98768.50;1789273;80;21075;-74
2021/12/24 06:16:24;;;;;;;5.70;3.93;;;;;;;3.24;91.71;98763.70;1789185;80;21503;-73
2021/12/24 06:18:51;;;;;;;5.33;3.90;;;;;;;3.26;91.71;98768.39;1789316;80;20969;-73
2021/12/24 06:21:18;;;;;;;5.10;4.30;;;;;;;3.26;91.75;98783.47;1789106;80;21970;-73
2021/12/24 06:23:48;;;;;;;7.47;4.40;;;;;;;3.29;91.83;98784.66;1789197;80;21011;-73
2021/12/24 06:26:16;;;;;;;5.67;4.05;;;;;;;3.32;91.86;98779.38;1789339;80;21035;-74
2021/12/24 06:28:43;;;;;;;5.20;4.10;;;;;;;3.33;91.94;98766.00;1789475;80;20976;-73
2021/12/24 06:31:09;;;;;;;5.27;4.10;;;;;;;3.37;91.96;98771.46;1789115;80;21039;-73
2021/12/24 06:33:37;;;;;;;6.33;4.23;;;;;;;3.39;91.84;98774.02;1789314;80;21087;-72
2021/12/24 06:36:06;;;;;;;6.63;4.23;;;;;;;3.39;91.87;98772.27;1788775;80;21031;-72
2021/12/24 06:38:33;;;;;;;5.97;4.37;;;;;;;3.40;91.90;98772.65;1789207;80;21273;-72
2021/12/24 06:41:00;;;;;;;4.87;3.77;;;;;;;3.42;91.91;98765.68;1788987;80;20980;-72
2021/12/24 06:43:28;;;;;;;5.73;4.23;;;;;;;3.44;91.97;98776.84;1789408;80;21098;-76
2021/12/24 06:45:57;;;;;;;6.70;4.17;;;;;;;3.46;91.94;98771.14;1789018;80;21894;-76
2021/12/24 06:48:23;;;;;;;6.93;4.30;;;;;;;3.47;92.01;98770.27;1789259;80;21511;-75
2021/12/24 06:50:50;;;;;;;6.83;3.90;;;;;;;3.50;91.99;98772.73;1789116;80;21122;-74
2021/12/24 06:53:17;;;;;;;5.50;4.10;;;;;;;3.51;92.05;98773.58;1784246;80;21015;-74
2021/12/24 06:55:46;;;;;;;5.43;3.90;;;;;;;3.53;92.05;98767.45;1778964;80;21305;-77
2021/12/24 06:58:13;;;;;;;5.60;4.20;;;;;;;3.56;92.13;98769.94;1779153;80;21113;-78
2021/12/24 07:00:40;;;;;;;6.53;4.70;;;;;;;3.58;92.15;98777.67;1778876;80;21469;-78
2021/12/24 07:03:09;;;;;;;6.13;4.23;;;;;;;3.61;92.20;98778.02;1779181;80;21035;-77
2021/12/24 07:05:36;;;;;;;6.10;4.40;;;;;;;3.64;92.12;98788.27;1779379;80;20992;-75
2021/12/24 07:08:04;;;;;;;7.57;4.87;;;;;;;3.64;92.10;98774.86;1779157;80;21114;-74
2021/12/24 07:10:31;;;;;;;7.03;4.50;;;;;;;3.65;92.02;98767.92;1779357;80;21130;-75
2021/12/24 07:13:00;;;;;;;7.20;4.37;;;;;;;3.68;92.10;98772.99;1778967;80;20997;-74
2021/12/24 07:15:27;;;;;;;4.80;3.73;;;;;;;3.70;92.25;98768.16;1779306;80;21019;-74
2021/12/24 07:17:54;;;;;;;6.10;3.70;;;;;;;3.72;92.28;98761.18;1779100;80;21095;-75
2021/12/24 07:20:20;;;;;;;5.27;3.83;;;;;;;3.75;92.24;98762.37;1779383;80;20988;-75
2021/12/24 07:22:47;;;;;;;5.07;3.93;;;;;;;3.76;92.09;98762.75;1778890;80;21054;-75
2021/12/24 07:25:14;;;;;;;4.87;3.90;;;;;;;3.77;92.25;98761.88;1779228;80;21091;-74
2021/12/24 07:27:41;;;;;;;4.87;3.70;;;;;;;3.79;92.30;98763.94;1779076;80;21051;-75
2021/12/24 07:30:11;;;;;;;4.63;3.20;;;;;;;3.84;92.40;98765.53;1779284;80;21044;-78
2021/12/24 07:32:39;;;;;;;4.37;3.00;;;;;;;3.85;92.31;98760.73;1778875;80;21035;-79
2021/12/24 07:35:08;;;;;;;3.60;3.03;;;;;;;3.85;92.29;98757.69;1779250;80;21061;-78
2021/12/24 07:37:35;;;;;;;4.13;3.00;;;;;;;3.88;92.28;98755.44;1778935;80;21004;-77
2021/12/24 07:40:03;;;;;;;3.10;2.80;;;;;;;3.91;92.37;98757.48;1779196;80;21036;-76
2021/12/24 07:42:30;;;;;;;4.37;3.27;;;;;;;3.94;92.46;98756.53;1778936;80;21423;-73
2021/12/24 07:44:58;;;;;;;3.50;2.83;;;;;;;3.97;92.45;98757.72;1779222;80;21035;-75
2021/12/24 07:47:32;;;;;;;4.53;2.93;;;;;;;3.98;92.35;98760.23;1779164;80;21138;-77
2021/12/24 07:50:15;;;;;;;3.00;2.53;;;;;;;3.99;92.45;98748.98;1791543;79;21031;-75
2021/12/24 07:52:31;;;;;;;3.73;2.97;;;;;;;3.99;92.32;98752.00;1787004;80;21049;-76
2021/12/24 07:54:58;;;;;;;3.37;2.60;;;;;;;4.01;92.45;98751.50;1815952;78;21282;-76
2021/12/24 07:57:25;;;;;;;3.70;2.87;;;;;;;4.02;92.47;98743.69;1824479;78;21483;-76
2021/12/24 07:59:58;;;;;;;2.60;1.92;;;;;;;4.06;92.58;98739.67;1823785;78;21513;-74
2021/12/24 08:02:26;;;;;;;3.50;2.60;;;;;;;4.07;92.62;98738.30;1824411;78;21563;-76
2021/12/24 08:04:53;;;;;;;3.03;2.40;;;;;;;4.09;92.57;98730.03;1824682;78;20992;-75
2021/12/24 08:07:21;;;;;;;4.00;2.40;;;;;;;4.10;92.57;98732.16;1824437;78;21990;-78
2021/12/24 08:09:51;;;;;;;2.73;2.20;;;;;;;4.11;92.65;98728.23;1824492;78;20980;-77
2021/12/24 08:12:20;;;;;;;3.77;2.20;;;;;;;4.13;92.56;98730.75;1824929;78;21516;-75
2021/12/24 08:14:47;;;;;;;3.53;2.50;;;;;;;4.15;92.69;98717.28;1819753;78;21058;-76
2021/12/24 08:17:16;;;;;;;2.57;2.20;;;;;;;4.19;92.69;98717.58;1824564;78;20968;-75
2021/12/24 08:19:43;;;;;;;2.23;1.87;;;;;;;4.20;92.68;98717.50;1823306;78;21417;-78
2021/12/24 08:22:11;;;;;;;2.50;2.10;;;;;;;4.22;92.73;98714.41;1824470;78;21043;-77
2021/12/24 08:24:39;;;;;;;3.33;2.10;;;;;;;4.25;92.80;98717.34;1824591;78;21053;-79
2021/12/24 08:27:08;;;;;;;3.00;2.40;;;;;;;4.27;92.74;98714.24;1824604;78;21023;-75
2021/12/24 08:29:36;;;;;;;2.70;1.97;;;;;;;4.30;92.84;98715.42;1824432;78;21043;-77
2021/12/24 08:32:04;;;;;;;3.10;2.00;;;;;;;4.32;92.86;98714.05;1824655;78;20973;-76
2021/12/24 08:34:32;;;;;;;2.47;1.93;;;;;;;4.37;92.97;98716.02;1817208;78;21050;-74
2021/12/24 08:37:00;;;;;;;2.13;1.90;;;;;;;4.40;93.00;98719.78;1820362;78;21137;-76
2021/12/24 08:39:28;;;;;;;2.97;2.20;;;;;;;4.43;92.92;98715.34;1816822;78;21043;-73
2021/12/24 08:41:55;;;;;;;2.30;2.00;;;;;;;4.46;92.97;98713.05;1814424;78;20980;-73
2021/12/24 08:44:26;;;;;;;2.17;1.90;;;;;;;4.48;93.04;98716.44;1787749;78;21470;-73
2021/12/24 08:46:55;;;;;;;3.57;2.50;;;;;;;4.54;93.10;98719.25;1821709;78;21048;-74
2021/12/24 08:49:23;;;;;;;2.33;2.03;;;;;;;4.57;92.98;98714.80;1812652;78;21130;-75
2021/12/24 08:51:51;;;;;;;2.60;1.87;;;;;;;4.57;92.96;98724.31;1822957;78;21405;-80
2021/12/24 08:54:21;;;;;;;3.13;1.93;;;;;;;4.61;93.05;98724.59;1813400;78;21004;-75
2021/12/24 08:56:49;;;;;;;2.25;1.80;;;;;;;4.64;93.04;98723.17;1808062;78;21524;-76
2021/12/24 08:59:16;;;;;;;3.27;1.80;;;;;;;4.66;92.84;98718.31;1802800;78;21039;-78
2021/12/24 09:01:43;;;;;;;1.37;1.27;;;;;;;4.66;92.92;98722.67;1791571;80;21195;-78
2021/12/24 09:04:12;;;;;;;1.57;1.43;;;;;;;4.66;92.91;98726.10;1791557;80;20972;-76
2021/12/24 09:06:40;;;;;;;1.50;1.40;;;;;;;4.66;92.74;98723.97;1792163;79;20961;-78
2021/12/24 09:09:08;;;;;;;1.93;1.40;;;;;;;4.66;92.96;98726.10;1791767;80;21051;-77
2021/12/24 09:11:37;;;;;;;1.33;1.10;;;;;;;4.68;93.02;98722.13;1792137;80;21032;-75
2021/12/24 09:14:05;;;;;;;1.23;1.07;;;;;;;4.72;93.08;98717.23;1791424;79;21492;-74
2021/12/24 09:16:37;;;;;;;1.37;1.20;;;;;;;4.74;93.18;98710.66;1791836;80;21450;-76
2021/12/24 09:19:09;;;;;;;1.93;1.20;;;;;;;4.77;93.26;98703.62;1792170;80;20996;-75
2021/12/24 09:21:34;;;;;;;2.52;1.62;;;;;;;4.80;93.17;98698.76;1791948;79;21040;-79
2021/12/24 09:24:06;;;;;;;1.90;1.67;;;;;;;4.81;93.23;98701.73;1792127;79;21028;-81
2021/12/24 09:26:32;;;;;;;;;;;;;;;4.82;93.20;98700.39;1794587;79;21120;-76
2021/12/24 09:29:02;;;;;;;1.90;1.10;;;;;;;4.86;93.31;98695.91;1792121;79;20173;-78
2021/12/24 09:31:29;;;;;;;2.27;1.40;;;;;;;4.88;93.32;98694.09;1791887;79;21000;-77
2021/12/24 09:33:56;;;;;;;2.17;1.33;;;;;;;4.89;93.35;98695.31;1792210;80;21047;-73
2021/12/24 09:36:26;;;;;;;1.50;0.80;;;;;;;4.91;93.35;98693.51;1791886;79;21551;-73
2021/12/24 09:38:57;;;;;;;2.10;1.02;;;;;;;4.96;93.45;98687.27;1792161;80;21104;-72
2021/12/24 09:41:27;;;;;;;1.47;1.07;;;;;;;4.99;93.45;98676.75;1791781;79;20953;-72
2021/12/24 09:43:58;;;;;;;0.72;0.62;;;;;;;5.02;93.37;98677.95;1792391;80;20976;-72
2021/12/24 09:46:27;;;;;;;1.20;0.80;;;;;;;5.03;93.39;98674.43;1777147;80;21000;-74
2021/12/24 09:48:55;;;;;;;1.20;0.80;;;;;;;5.05;93.47;98675.22;1792096;80;21024;-73
2021/12/24 09:51:26;;;;;;;2.10;1.00;;;;;;;5.08;93.50;98685.02;1791961;80;21116;-72
2021/12/24 09:53:56;;;;;;;0.80;0.70;;;;;;;5.10;93.57;98674.11;1791886;79;20980;-72
2021/12/24 09:56:24;;;;;;;1.00;0.45;;;;;;;5.18;93.72;98663.84;1791778;79;21031;-73
2021/12/24 09:58:51;;;;;;;1.37;0.80;;;;;;;5.25;93.83;98662.67;1791928;79;21020;-73
2021/12/24 10:01:31;;;;;;;1.10;0.70;;;;;;;5.30;93.77;98652.94;1791705;79;20973;-74
2021/12/24 10:04:12;;;;;;;0.95;0.70;;;;;;;5.34;93.71;98644.08;1747076;80;21447;-72
2021/12/24 10:06:43;;;;;;;2.73;1.47;;;;;;;5.35;93.58;98645.33;1746224;82;21089;-74
2021/12/24 10:09:12;;;;;;;3.03;1.70;;;;;;;5.37;93.65;98633.55;1740116;80;21028;-73
2021/12/24 10:11:52;;;;;;;2.63;1.60;;;;;;;5.37;93.62;98633.09;1747412;82;21094;-74
2021/12/24 10:14:22;;;;;;;1.60;1.22;;;;;;;5.38;93.49;98635.26;1747447;82;21093;-74
2021/12/24 10:16:51;;;;;;;2.83;1.60;;;;;;;5.35;93.41;98633.64;1728173;81;21208;-76
2021/12/24 10:19:19;;;;;;;3.00;1.77;;;;;;;5.34;93.42;98629.33;1725948;81;21140;-75
2021/12/24 10:21:49;;;;;;;2.43;1.60;;;;;;;5.32;93.28;98635.50;1725700;81;21039;-76
2021/12/24 10:24:19;;;;;;;4.42;1.80;;;;;;;5.28;93.19;98639.16;1725229;81;21516;-77
2021/12/24 10:26:52;;;;;;;1.90;1.37;;;;;;;5.25;93.29;98637.54;1730909;81;21576;-76
2021/12/24 10:29:32;;;;;;;2.70;1.90;;;;;;;5.23;93.33;98639.35;1726116;81;21113;-76
2021/12/24 10:32:13;;;;;;;4.13;1.87;;;;;;;5.23;93.38;98634.62;1724970;81;21082;-76
2021/12/24 10:34:42;;;;;;;2.07;1.40;;;;;;;5.21;93.38;98631.23;1726009;81;21039;-77
2021/12/24 10:37:22;;;;;;;4.07;2.13;;;;;;;5.22;93.52;98631.19;1742747;81;21041;-76
2021/12/24 10:39:58;;;;;;;2.55;1.80;;;;;;;5.24;93.65;98628.53;1743084;81;21038;-75
2021/12/24 10:42:42;;;;;;;2.37;1.53;;;;;;;5.28;93.82;98623.58;1811881;79;21449;-75
2021/12/24 10:45:20;;;;;;;1.10;1.00;;;;;;;5.28;93.77;98634.80;1813584;79;21568;-75
2021/12/24 10:47:47;;;;;;;1.27;0.63;;;;;;;5.30;93.95;98625.20;1813246;79;22094;-75
2021/12/24 10:53:21;;;;;;;0.83;0.57;;;;;;;5.40;94.24;98619.58;1820124;78;22349;-75
2021/12/24 10:55:51;;;;;;;0.83;0.70;;;;;;;5.43;94.32;98614.25;1819179;78;21040;-75
2021/12/24 10:58:22;;;;;;;1.10;0.63;;;;;;;5.47;94.40;98608.86;1820392;78;21524;-75
2021/12/24 11:00:54;;;;;;;0.57;0.57;;;;;;;5.52;94.49;98603.47;1818584;78;20983;-77
2021/12/24 11:03:25;;;;;;;1.00;0.70;;;;;;;5.58;94.56;98605.78;1788367;80;21524;-76
2021/12/24 11:05:57;;;;;;;1.03;0.70;;;;;;;5.62;94.58;98595.62;1789316;80;21035;-79
2021/12/24 11:08:27;;;;;;;1.33;0.90;;;;;;;5.65;94.63;98598.07;1786230;80;21131;-79
2021/12/24 11:11:01;;;;;;;1.70;1.00;;;;;;;5.73;94.66;98598.56;1789251;80;21535;-79
2021/12/24 11:13:39;;;;;;;1.63;1.13;;;;;;;5.78;94.73;98602.27;1788724;80;21040;-85
2021/12/24 11:16:10;;;;;;;1.83;1.10;;;;;;;5.84;94.70;98592.88;1789215;80;20992;-74
2021/12/24 11:18:47;;;;;;;1.80;1.30;;;;;;;5.90;94.82;98593.04;1789208;80;27109;-72
2021/12/24 11:21:24;;;;;;;2.43;1.53;;;;;;;5.96;94.91;98591.05;1789052;80;21081;-74
2021/12/24 11:23:52;;;;;;;2.97;1.50;;;;;;;6.01;94.79;98587.77;1788831;80;21500;-73
2021/12/24 11:26:24;;;;;;;2.23;1.00;;;;;;;6.08;94.84;98597.88;1788813;80;21583;-73
2021/12/24 11:28:51;;;;;;;2.67;1.70;;;;;;;6.12;94.80;98578.59;1789405;80;20995;-72
2021/12/24 11:31:26;;;;;;;3.27;1.50;;;;;;;6.18;94.91;98580.90;1789100;80;20968;-71
2021/12/24 11:33:55;;;;;;;2.03;0.90;;;;;;;6.23;94.86;98570.66;1789319;80;21862;-71
2021/12/24 11:36:26;;;;;;;2.50;1.00;;;;;;;6.29;94.86;98573.45;1789045;80;21000;-72
2021/12/24 11:38:59;;;;;;;0.90;0.75;;;;;;;6.35;94.92;98567.94;1789585;80;21020;-72
2021/12/24 11:41:31;;;;;;;1.30;0.80;;;;;;;6.43;95.01;98573.61;1789114;80;21129;-71
2021/12/24 11:44:06;;;;;;;1.00;0.90;;;;;;;6.50;95.06;98565.02;1815687;78;20999;-70
2021/12/24 11:46:33;;;;;;;1.93;0.80;;;;;;;6.55;94.94;98564.34;1821216;78;22023;-71
2021/12/24 11:49:00;;;;;;;2.33;1.07;;;;;;;6.61;94.91;98565.79;1792440;78;21023;-74
2021/12/24 11:51:40;;;;;;;1.50;0.97;;;;;;;6.66;94.90;98568.55;1821236;78;21015;-74
2021/12/24 11:54:07;;;;;;;1.70;1.20;;;;;;;6.70;94.90;98564.85;1820458;78;21004;-73
2021/12/24 11:56:50;;;;;;;0.70;0.70;;;;;;;6.77;94.96;98555.45;1816290;78;20984;-74
2021/12/24 11:59:19;;;;;;;1.60;0.60;;;;;;;6.81;94.85;98545.25;1790956;78;21135;-73
2021/12/24 12:01:46;;;;;;;1.23;0.80;;;;;;;6.87;94.97;98542.32;1785791;80;21016;-75
2021/12/24 12:04:20;;;;;;;0.93;0.60;;;;;;;6.90;94.92;98538.25;1788948;80;20992;-76
2021/12/24 12:06:47;;;;;;;0.43;0.43;;;;;;;6.91;94.76;98536.89;1788827;80;21428;-72
2021/12/24 12:09:15;;;;;;;0.70;0.60;;;;;;;6.93;94.68;98524.64;1788786;80;21027;-76
2021/12/24 12:11:45;;;;;;;0.60;0.57;;;;;;;6.95;94.72;98524.53;1788858;78;21224;-78
2021/12/24 12:14:21;;;;;;;0.62;0.53;;;;;;;7.00;94.75;98520.40;1791863;78;21011;-76
2021/12/24 12:17:01;;;;;;;1.00;0.60;;;;;;;7.03;94.78;98525.45;1791296;79;20920;-75
2021/12/24 12:22:29;;;;;;;0.87;0.60;;;;;;;7.11;94.87;98516.30;1791380;79;21051;-75
2021/12/24 12:25:03;;;;;;;1.30;0.60;;;;;;;7.15;94.84;98514.39;1791876;79;21925;-76
2021/12/24 12:27:54;;;;;;;0.90;0.60;;;;;;;7.19;94.80;98511.16;1793510;78;21031;-79
2021/12/24 12:30:39;;;;;;;1.27;0.70;;;;;;;7.20;94.75;98509.75;1821129;78;21261;-77
2021/12/24 12:33:11;;;;;;;0.50;0.50;;;;;;;7.21;94.72;98510.16;1821516;78;21039;-76
2021/12/24 12:35:57;;;;;;;1.13;0.60;;;;;;;7.23;94.79;98506.15;1821217;78;20984;-80
2021/12/24 12:38:40;;;;;;;0.90;0.60;;;;;;;7.25;94.77;98499.93;1821490;78;21075;-77
2021/12/24 12:41:39;;;;;;;2.17;0.80;;;;;;;7.26;94.71;98497.73;1821287;78;21082;-80
2021/12/24 12:44:10;;;;;;;0.30;0.30;;;;;;;7.26;94.72;98496.42;1820624;78;21035;-78
2021/12/24 12:46:41;;;;;;;0.90;0.60;;;;;;;7.26;94.73;98491.21;1821320;78;21008;-76
2021/12/24 12:49:16;;;;;;;0.70;0.50;;;;;;;7.27;94.69;98502.47;1821733;78;20981;-75
2021/12/24 12:51:57;;;;;;;0.90;0.70;;;;;;;7.26;94.70;98483.83;1821034;78;21137;-77
2021/12/24 12:54:47;;;;;;;1.20;0.70;;;;;;;7.27;94.68;98499.86;1821403;78;21465;-77
2021/12/24 12:57:28;;;;;;;1.37;0.80;;;;;;;7.25;94.63;98493.88;1821499;78;21003;-78
2021/12/24 13:00:19;;;;;;;0.80;0.53;;;;;;;7.25;94.65;98493.41;1806799;78;21019;-76
2021/12/24 13:05:43;;;;;;;1.40;0.97;;;;;;;7.26;94.70;98491.64;1815517;78;21094;-74
2021/12/24 13:08:21;;;;;;;1.67;1.00;;;;;;;7.27;94.78;98481.16;1809768;78;21600;-75
2021/12/24 13:11:10;;;;;;;1.57;0.97;;;;;;;7.30;94.81;98483.59;1818346;78;21007;-79
2021/12/24 13:13:53;;;;;;;2.00;1.20;;;;;;;7.33;94.78;98483.89;1818843;78;21008;-81
2021/12/24 13:16:21;;;;;;;1.70;1.13;;;;;;;7.34;94.80;98487.73;1821143;78;21262;-76
2021/12/24 13:18:59;;;;;;;2.10;1.33;;;;;;;7.37;94.81;98495.38;1821231;78;21095;-79
2021/12/24 13:24:13;;;;;;;2.07;1.30;;;;;;;7.43;94.75;98493.34;1805001;78;21097;-78
2021/12/24 13:26:41;;;;;;;3.97;1.80;;;;;;;7.42;94.67;98502.09;1789187;80;20985;-77
2021/12/24 13:29:14;;;;;;;3.17;1.70;;;;;;;7.42;94.69;98489.06;1788853;80;21455;-79
2021/12/24 13:31:42;;;;;;;1.93;1.30;;;;;;;7.42;94.67;98482.55;1788783;80;21125;-82